Portada
METAR-TAF:

METAR-TAF

Aeropuertos :

Bushehr, Irán

latitud: 28-59N, longitud: 050-50E, altitud: 19 m

Observación

El informe se hizo hace 19 minutos, a las 14:00 UTC
Viento 8 kt del oeste-suroeste
Temperatura 27°C
Humedad 54%
Presión 1007 hPa
Visibilidad 10 km o más
sin nubes por debajo de 1500 m y sin presencia de cumulonimbus.

METAR: OIBB 141400Z 25008KT CAVOK 27/17 Q1007 A2974 NOSIG

Hora: 18:49 (14:19 UTC)

Pronóstico

El informe se hizo hace 3 horas y 9 minutos, a las 11:10 UTC
Pronóstico válido del 14 a las 12 UTC al 14 a las 21 UTC
Viento 10 kt del oeste
Visibilidad: 8000 m
Temporalmente
del 14 a las 18 UTC al 14 a las 21 UTC
Visibilidad: 3000 m

TAF: OIBB 141110Z 1412/1421 26010KT 8000 NSC TEMPO 1418/1421 3000 BR/HZ

Observaciones y pronósticos meteorológicos de más de 4000 aeropuertos (mensajes METAR y TAF).

Los puntos amarillos y rojos representan las estaciones disponibles.

Ponga el ratón en el punto deseado para ver el nombre de la estación.

Haga clic para ver las observaciones y los pronósticos meteorológicos.

Para cambiar el mapa : haga clic en los botones verdes con una cruz de color negro para hacer un zoom, en el botón verde con un guión para alejar o en las flechas verdes para mapas adyacentes.


METAR-TAF: